Artesian, Iowa
Current Conditions -  °F | °C
As of 1:54 AM on Tuesday 21 Oct 2014 (Local Time) from KALO Reporting Station
Clear Clear  
Wind Chill: 38°   Ceiling: Unl
Heat Index: 38°   Visibility: 10mi
Dew Point: 35°   Wind: 0mph
Humidity: 89%   Direction: NA
Pressure: 30.07"   Gusts: NA
Location:  42.787°N, 92.4284°W
Report Text: KALO 210654Z 00000KT 10SM CLR 03/02 A3007 RMK AO2 SLP186 T00330017
Loading
Personal Weather Stations






























Interactive Weather Map
Tropical Storm Tracking
New forecast layout! Learn more

10-Day Weather Forecast

Advertisements
Track Severe Weather on mobile